createdAt,value
2017-09-05T00:01:32.748Z,100810
2017-09-05T00:06:35.986Z,100795
2017-09-05T00:11:40.060Z,100800
2017-09-05T00:16:43.262Z,100801
2017-09-05T00:37:43.692Z,100801
2017-09-05T00:42:46.895Z,100804
2017-09-05T00:47:50.092Z,100799
2017-09-05T00:52:53.292Z,100800
2017-09-05T00:57:56.514Z,100801
2017-09-05T01:02:59.734Z,100795
2017-09-05T01:08:02.937Z,100798
2017-09-05T01:13:06.137Z,100795
2017-09-05T01:18:09.343Z,100796
2017-09-05T01:23:12.550Z,100796
2017-09-05T01:28:15.761Z,100805
2017-09-05T01:33:18.973Z,100811
2017-09-05T01:38:22.182Z,100812
2017-09-05T01:43:25.492Z,100809
2017-09-05T01:48:28.691Z,100810
2017-09-05T01:53:31.897Z,100808
2017-09-05T01:58:35.112Z,100799
2017-09-05T02:03:38.336Z,100797
2017-09-05T02:08:41.539Z,100792
2017-09-05T02:13:44.760Z,100800
2017-09-05T02:18:47.971Z,100802
2017-09-05T02:23:51.187Z,100804
2017-09-05T02:28:54.408Z,100809
2017-09-05T02:33:57.626Z,100802
2017-09-05T02:39:00.851Z,100801
2017-09-05T02:44:04.079Z,100796
2017-09-05T02:49:07.289Z,100796
2017-09-05T02:54:10.515Z,100794
2017-09-05T02:59:13.688Z,100788
2017-09-05T03:04:16.908Z,100793
2017-09-05T03:09:20.087Z,100786
2017-09-05T03:14:23.333Z,100788
2017-09-05T03:19:26.534Z,100788
2017-09-05T03:24:29.753Z,100782
2017-09-05T03:29:32.968Z,100777
2017-09-05T03:34:36.183Z,100778
2017-09-05T03:39:39.407Z,100772
2017-09-05T03:44:42.626Z,100771
2017-09-05T03:49:46.045Z,100767
2017-09-05T03:54:49.271Z,100766
2017-09-05T03:59:52.494Z,100770
2017-09-05T04:04:55.703Z,100768
2017-09-05T04:09:58.910Z,100768
2017-09-05T04:15:02.110Z,100767
2017-09-05T04:20:05.424Z,100765
2017-09-05T04:25:08.627Z,100761
2017-09-05T04:30:11.845Z,100772
2017-09-05T04:35:15.084Z,100770
2017-09-05T04:40:18.300Z,100780
2017-09-05T04:45:21.511Z,100785
2017-09-05T04:50:24.714Z,100778
2017-09-05T04:55:27.981Z,100784
2017-09-05T05:00:31.196Z,100786
2017-09-05T05:05:34.420Z,100789
2017-09-05T05:10:37.673Z,100800
2017-09-05T05:15:40.900Z,100802
2017-09-05T05:20:44.118Z,100798
2017-09-05T05:25:47.340Z,100805
2017-09-05T05:30:50.531Z,100799
2017-09-05T05:35:53.769Z,100798
2017-09-05T05:40:56.986Z,100798
2017-09-05T05:46:00.327Z,100799
2017-09-05T05:51:03.539Z,100791
2017-09-05T05:56:06.798Z,100796
2017-09-05T06:01:10.000Z,100797
2017-09-05T06:06:13.254Z,100795
2017-09-05T06:11:16.466Z,100801
2017-09-05T06:16:19.707Z,100798
2017-09-05T06:21:22.892Z,100796
2017-09-05T06:26:26.139Z,100798
2017-09-05T06:31:29.364Z,100794
2017-09-05T06:36:32.600Z,100800
2017-09-05T06:41:35.832Z,100797
2017-09-05T06:46:39.035Z,100797
2017-09-05T06:51:42.243Z,100789
2017-09-05T06:56:45.440Z,100784
2017-09-05T07:01:48.621Z,100781
2017-09-05T07:06:51.856Z,100780
2017-09-05T07:11:55.048Z,100776
2017-09-05T07:16:58.281Z,100791
2017-09-05T07:22:01.581Z,100793
2017-09-05T07:27:04.792Z,100785
2017-09-05T07:32:08.037Z,100777
2017-09-05T07:37:11.310Z,100783
2017-09-05T07:42:14.534Z,100778
2017-09-05T07:47:17.774Z,100781
2017-09-05T07:52:21.009Z,100780
2017-09-05T07:57:24.224Z,100793
2017-09-05T08:02:27.433Z,100795
2017-09-05T08:07:30.641Z,100808
2017-09-05T08:12:33.853Z,100813
2017-09-05T08:17:37.089Z,100812
2017-09-05T08:22:40.314Z,100806
2017-09-05T08:27:43.603Z,100799
2017-09-05T08:32:46.838Z,100800
2017-09-05T08:37:50.093Z,100808
2017-09-05T08:42:53.318Z,100807
2017-09-05T08:47:56.631Z,100807
2017-09-05T08:52:59.853Z,100805
2017-09-05T08:58:03.120Z,100797
2017-09-05T09:03:06.475Z,100797
2017-09-05T09:08:09.792Z,100800
2017-09-05T09:13:13.020Z,100797
2017-09-05T09:18:16.246Z,100785
2017-09-05T09:23:19.454Z,100796
2017-09-05T09:28:22.625Z,100792
2017-09-05T09:33:25.893Z,100791
2017-09-05T09:38:29.112Z,100782
2017-09-05T09:43:32.344Z,100788
2017-09-05T09:48:35.557Z,100779
2017-09-05T09:53:38.757Z,100781
2017-09-05T09:58:42.019Z,100784
2017-09-05T10:03:45.238Z,100777
2017-09-05T10:08:48.585Z,100766
2017-09-05T10:13:51.845Z,100768
2017-09-05T10:18:55.066Z,100757
2017-09-05T10:23:58.300Z,100747
2017-09-05T10:29:01.522Z,100742
2017-09-05T10:34:04.759Z,100742
2017-09-05T10:39:07.984Z,100736
2017-09-05T10:44:11.210Z,100739
2017-09-05T10:49:14.480Z,100732
2017-09-05T10:54:17.704Z,100733
2017-09-05T10:59:20.959Z,100729
2017-09-05T11:04:25.182Z,100723
2017-09-05T11:09:28.416Z,100714
2017-09-05T11:14:31.839Z,100711
2017-09-05T11:19:35.045Z,100711
2017-09-05T11:24:38.422Z,100701
2017-09-05T11:29:41.689Z,100693
2017-09-05T11:34:44.937Z,100694
2017-09-05T11:39:48.157Z,100691
2017-09-05T11:44:51.395Z,100686
2017-09-05T11:49:54.581Z,100679
2017-09-05T11:54:57.829Z,100676
2017-09-05T12:00:01.036Z,100674
2017-09-05T12:05:04.249Z,100667
2017-09-05T12:10:07.474Z,100663
2017-09-05T12:15:10.666Z,100660
2017-09-05T12:20:14.141Z,100661
2017-09-05T12:25:17.342Z,100655
2017-09-05T12:30:20.730Z,100658
2017-09-05T12:35:23.918Z,100648
2017-09-05T12:40:27.114Z,100635
2017-09-05T12:45:30.264Z,100637
2017-09-05T12:50:33.600Z,100626
2017-09-05T12:55:36.836Z,100626
2017-09-05T13:00:40.013Z,100624
2017-09-05T13:05:43.424Z,100628
2017-09-05T13:10:46.634Z,100620
2017-09-05T13:15:49.859Z,100610
2017-09-05T13:20:53.119Z,100607
2017-09-05T13:25:56.311Z,100593
2017-09-05T13:30:59.785Z,100599
2017-09-05T13:36:02.999Z,100600
2017-09-05T13:41:06.184Z,100602
2017-09-05T13:46:09.400Z,100599
2017-09-05T13:51:12.599Z,100605
2017-09-05T13:56:15.801Z,100599
2017-09-05T14:01:19.010Z,100595
2017-09-05T14:06:22.218Z,100600
2017-09-05T14:11:25.435Z,100588
2017-09-05T14:16:28.635Z,100582
2017-09-05T14:21:31.886Z,100578
2017-09-05T14:26:35.222Z,100575
2017-09-05T14:31:38.454Z,100578
2017-09-05T14:36:41.672Z,100587
2017-09-05T14:41:44.903Z,100581
2017-09-05T14:46:48.107Z,100586
2017-09-05T14:51:51.313Z,100574
2017-09-05T14:56:54.535Z,100588
2017-09-05T15:01:57.730Z,100574
2017-09-05T15:07:00.996Z,100571
2017-09-05T15:12:04.216Z,100572
2017-09-05T15:17:07.420Z,100576
2017-09-05T15:22:10.715Z,100575
2017-09-05T15:27:13.952Z,100568
2017-09-05T15:32:17.137Z,100577
2017-09-05T15:37:20.318Z,100559
2017-09-05T15:42:23.535Z,100560
2017-09-05T15:47:26.731Z,100559
2017-09-05T15:52:29.938Z,100551
2017-09-05T15:57:33.193Z,100554
2017-09-05T16:02:36.446Z,100544
2017-09-05T16:07:39.706Z,100558
2017-09-05T16:12:42.931Z,100548
2017-09-05T16:17:46.136Z,100546
2017-09-05T16:22:49.367Z,100543
2017-09-05T16:27:52.596Z,100548
2017-09-05T16:32:55.863Z,100546
2017-09-05T16:37:59.074Z,100537
2017-09-05T16:43:02.311Z,100534
2017-09-05T16:48:05.533Z,100529
2017-09-05T16:53:08.744Z,100533
2017-09-05T17:03:41.679Z,100537
2017-09-05T17:08:44.902Z,100528
2017-09-05T17:13:48.171Z,100526
2017-09-05T17:18:51.486Z,100533
2017-09-05T17:23:54.686Z,100524
2017-09-05T17:28:57.893Z,100524
2017-09-05T17:34:01.088Z,100518
2017-09-05T17:39:04.266Z,100511
2017-09-05T17:44:07.483Z,100505
2017-09-05T17:49:10.810Z,100512
2017-09-05T17:54:14.026Z,100521
2017-09-05T17:59:17.262Z,100527
2017-09-05T18:04:20.500Z,100529
2017-09-05T18:09:23.707Z,100535
2017-09-05T18:14:26.905Z,100527
2017-09-05T18:19:30.132Z,100533
2017-09-05T18:24:33.348Z,100541
2017-09-05T18:29:36.680Z,100541
2017-09-05T18:34:39.906Z,100538
2017-09-05T18:39:43.201Z,100545
2017-09-05T18:44:46.426Z,100549
2017-09-05T18:49:49.667Z,100545
2017-09-05T18:54:52.987Z,100547
2017-09-05T18:59:56.501Z,100547
2017-09-05T19:05:00.013Z,100564
2017-09-05T19:10:03.427Z,100554
2017-09-05T19:15:06.826Z,100555
2017-09-05T19:20:10.120Z,100560
2017-09-05T19:25:13.352Z,100548
2017-09-05T19:30:16.663Z,100560
2017-09-05T19:35:19.882Z,100548
2017-09-05T19:40:23.130Z,100553
2017-09-05T19:45:26.357Z,100554
2017-09-05T19:50:29.582Z,100556
2017-09-05T19:55:32.800Z,100560
2017-09-05T20:00:36.008Z,100549
2017-09-05T20:05:39.304Z,100554
2017-09-05T20:10:42.519Z,100552
2017-09-05T20:15:45.732Z,100554
2017-09-05T20:20:48.975Z,100561
2017-09-05T20:25:52.227Z,100551
2017-09-05T20:30:55.495Z,100552
2017-09-05T20:35:58.754Z,100549
2017-09-05T20:41:01.916Z,100550
2017-09-05T20:46:05.167Z,100544
2017-09-05T20:51:08.428Z,100551
2017-09-05T20:56:11.656Z,100555
2017-09-05T21:01:14.885Z,100558
2017-09-05T21:06:18.146Z,100552
2017-09-05T21:11:21.365Z,100552
2017-09-05T21:16:25.450Z,100541
2017-09-05T21:21:28.902Z,100538
2017-09-05T21:26:32.200Z,100545
2017-09-05T21:31:35.409Z,100540
2017-09-05T21:36:38.683Z,100527
2017-09-05T21:41:41.918Z,100528
2017-09-05T21:46:45.134Z,100529
2017-09-05T21:51:48.336Z,100528
2017-09-05T21:56:51.579Z,100531
2017-09-05T22:01:54.799Z,100517
2017-09-05T22:06:58.041Z,100512
2017-09-05T22:12:01.267Z,100519
2017-09-05T22:17:04.471Z,100522
2017-09-05T22:22:07.673Z,100517
2017-09-05T22:27:16.490Z,100519
2017-09-05T22:32:19.714Z,100512
2017-09-05T22:37:22.947Z,100514
2017-09-05T22:42:26.137Z,100519
2017-09-05T22:47:29.385Z,100515
2017-09-05T22:52:32.615Z,100514
2017-09-05T22:57:35.825Z,100512
2017-09-05T23:02:39.042Z,100508
2017-09-05T23:07:42.206Z,100497
2017-09-05T23:12:45.414Z,100500
2017-09-05T23:17:48.597Z,100497
2017-09-05T23:22:51.834Z,100496
2017-09-05T23:27:55.022Z,100494
2017-09-05T23:32:58.235Z,100487
2017-09-05T23:38:01.438Z,100489
2017-09-05T23:43:04.642Z,100482
2017-09-05T23:48:07.893Z,100486
2017-09-05T23:53:11.142Z,100486
2017-09-05T23:58:14.339Z,100486
